Time;durP1;ratioP1;P1;durP2;ratioP2;P2;SDS_P1;SDS_P2;PMS_P1;PMS_P2;Temp;Humidity;BMP_temperature;BMP_pressure;BME280_temperature;BME280_humidity;BME280_pressure;Samples;Min_cycle;Max_cycle;Signal;HPM_P1;HPM_P2
2022/03/03 00:00:14;;;;;;;26.77;14.50;;;;;;;0.61;95.31;100469.41;4968507;28;20506;-61
2022/03/03 00:02:41;;;;;;;31.83;16.02;;;;;;;0.37;95.36;100425.47;4959058;23;20063;-81
2022/03/03 00:05:07;;;;;;;32.78;16.23;;;;;;;0.55;95.93;100457.13;4972958;23;20617;-59
2022/03/03 00:07:33;;;;;;;35.30;16.02;;;;;;;0.57;96.26;100459.75;4987637;28;20543;-59
2022/03/03 00:09:58;;;;;;;39.83;17.42;;;;;;;0.56;96.55;100458.88;4988231;28;20022;-58
2022/03/03 00:12:24;;;;;;;33.60;16.88;;;;;;;0.50;96.31;100465.75;4988707;28;20030;-60
2022/03/03 00:14:50;;;;;;;30.85;15.55;;;;;;;0.42;95.67;100459.53;4990046;28;20110;-60
2022/03/03 00:17:15;;;;;;;26.27;16.20;;;;;;;0.39;95.73;100462.09;4989393;28;20019;-60
2022/03/03 00:19:42;;;;;;;31.60;17.20;;;;;;;0.38;96.47;100468.19;4989651;28;20046;-60
2022/03/03 00:22:08;;;;;;;29.25;16.58;;;;;;;0.42;96.70;100456.91;4988979;28;20359;-60
2022/03/03 00:24:33;;;;;;;29.08;15.88;;;;;;;0.43;96.88;100458.69;4987778;28;20022;-60
2022/03/03 00:26:59;;;;;;;30.67;16.48;;;;;;;0.39;96.13;100455.16;4988703;28;20503;-60
2022/03/03 00:29:24;;;;;;;25.85;14.43;;;;;;;0.35;96.67;100455.94;4988236;28;20089;-60
2022/03/03 00:31:50;;;;;;;30.50;16.17;;;;;;;0.42;95.99;100480.44;4988299;28;20041;-60
2022/03/03 00:34:15;;;;;;;26.75;15.10;;;;;;;0.37;95.95;100453.34;4989256;28;20035;-60
2022/03/03 00:36:42;;;;;;;27.50;15.20;;;;;;;0.31;96.13;100442.81;4971557;28;20053;-60
2022/03/03 00:39:07;;;;;;;29.00;16.45;;;;;;;0.43;96.87;100454.31;4988271;28;20019;-60
2022/03/03 00:41:33;;;;;;;28.95;15.63;;;;;;;0.42;96.23;100459.53;4989082;28;20031;-60
2022/03/03 00:43:58;;;;;;;26.00;15.10;;;;;;;0.37;96.56;100456.84;4989277;28;20205;-60
2022/03/03 00:46:26;;;;;;;30.08;16.38;;;;;;;0.39;96.26;100449.03;4988650;28;20768;-60
2022/03/03 00:48:54;;;;;;;29.35;16.08;;;;;;;0.47;96.33;100448.28;4988924;28;20553;-60
2022/03/03 00:51:20;;;;;;;29.50;15.27;;;;;;;0.42;96.39;100434.25;4989257;28;20030;-60
2022/03/03 00:53:47;;;;;;;26.10;13.95;;;;;;;0.56;95.50;100450.16;4989026;28;20366;-60
2022/03/03 00:56:12;;;;;;;30.40;15.25;;;;;;;0.53;95.64;100437.88;4988992;28;20029;-60
2022/03/03 00:58:38;;;;;;;29.30;15.98;;;;;;;0.50;95.48;100442.19;4989041;28;20030;-60
2022/03/03 01:01:03;;;;;;;31.85;16.73;;;;;;;0.50;95.95;100452.66;4987764;28;20690;-60
2022/03/03 01:03:29;;;;;;;32.83;17.33;;;;;;;0.43;95.08;100445.59;4981422;28;20027;-60
2022/03/03 01:05:54;;;;;;;38.90;18.45;;;;;;;0.30;95.47;100454.13;4969362;28;20049;-60
2022/03/03 01:08:20;;;;;;;30.83;17.15;;;;;;;0.29;95.48;100452.34;4969157;28;20023;-60
2022/03/03 01:10:46;;;;;;;35.40;16.85;;;;;;;0.31;95.99;100450.66;4969251;28;20117;-60
2022/03/03 01:13:11;;;;;;;27.40;16.52;;;;;;;0.38;96.74;100457.75;4969706;28;20027;-60
2022/03/03 01:15:37;;;;;;;37.33;18.58;;;;;;;0.48;96.61;100457.03;4969381;28;20066;-60
2022/03/03 01:18:03;;;;;;;30.45;17.20;;;;;;;0.37;96.02;100437.66;4968940;28;20022;-60
2022/03/03 01:20:28;;;;;;;28.13;15.85;;;;;;;0.48;96.07;100455.25;4968463;28;20050;-60
2022/03/03 01:22:55;;;;;;;32.95;17.80;;;;;;;0.43;96.28;100461.31;4968758;28;20393;-60
2022/03/03 01:25:20;;;;;;;36.60;17.30;;;;;;;0.41;95.87;100457.78;4969328;28;20122;-60
2022/03/03 01:27:45;;;;;;;30.25;15.55;;;;;;;0.31;95.96;100455.88;4969675;28;20023;-60
2022/03/03 01:30:11;;;;;;;34.20;17.75;;;;;;;0.24;96.18;100459.25;4969116;28;20045;-60
2022/03/03 01:32:38;;;;;;;30.58;16.38;;;;;;;0.13;95.92;100453.88;4968087;28;20070;-60
2022/03/03 01:35:03;;;;;;;35.08;16.67;;;;;;;0.13;95.94;100446.03;4968359;28;20030;-60
2022/03/03 01:37:29;;;;;;;28.00;14.43;;;;;;;0.11;96.97;100442.50;4969603;28;20113;-60
2022/03/03 01:39:54;;;;;;;29.13;17.90;;;;;;;0.13;96.78;100446.03;4972666;28;20031;-60
2022/03/03 01:42:20;;;;;;;28.23;14.82;;;;;;;0.20;96.52;100442.63;4972276;28;20034;-60
2022/03/03 01:44:46;;;;;;;26.38;16.15;;;;;;;0.20;96.86;100436.53;4972717;28;20030;-60
2022/03/03 01:47:17;;;;;;;31.88;15.80;;;;;;;0.16;96.41;100429.47;4973485;28;20034;-60
2022/03/03 01:49:43;;;;;;;27.63;13.98;;;;;;;0.14;96.17;100431.19;4972279;28;20037;-60
2022/03/03 01:52:08;;;;;;;25.00;14.43;;;;;;;0.02;96.13;100429.25;4973295;28;20038;-60
2022/03/03 01:54:33;;;;;;;24.70;13.10;;;;;;;0.01;96.50;100422.28;4972307;28;20050;-60
2022/03/03 01:56:59;;;;;;;26.10;15.27;;;;;;;0.02;96.41;100420.56;4973120;28;20038;-59
2022/03/03 01:59:25;;;;;;;25.42;14.52;;;;;;;0.03;97.16;100417.97;4972394;28;20106;-60
2022/03/03 02:01:51;;;;;;;29.00;13.10;;;;;;;0.03;96.27;100418.81;4973234;28;20042;-60
2022/03/03 02:04:16;;;;;;;27.40;14.90;;;;;;;0.01;96.42;100419.66;4971418;28;20093;-59
2022/03/03 02:06:42;;;;;;;32.60;14.73;;;;;;;0.01;95.88;100419.66;4970461;28;20026;-59
2022/03/03 02:09:07;;;;;;;26.55;15.38;;;;;;;0.05;96.38;100418.00;4971699;28;20031;-59
2022/03/03 02:11:33;;;;;;;29.92;14.90;;;;;;;-0.04;96.54;100422.22;4972683;28;20555;-59
2022/03/03 02:14:01;;;;;;;26.42;15.18;;;;;;;-0.04;96.44;100422.22;4972589;28;20035;-60
2022/03/03 02:16:27;;;;;;;28.02;13.88;;;;;;;-0.06;96.75;100408.25;4972478;28;20035;-59
2022/03/03 02:18:52;;;;;;;24.08;14.57;;;;;;;-0.08;97.27;100409.94;4972480;28;20077;-60
2022/03/03 02:21:18;;;;;;;26.60;14.73;;;;;;;-0.15;96.41;100410.69;4972450;28;20034;-59
2022/03/03 02:23:43;;;;;;;29.70;15.07;;;;;;;-0.17;97.21;100408.91;4972068;28;20038;-59
2022/03/03 02:26:15;;;;;;;32.30;15.48;;;;;;;-0.19;97.29;100408.91;4972859;28;20165;-59
2022/03/03 02:28:42;;;;;;;27.95;14.40;;;;;;;-0.27;97.54;100402.69;4972651;28;20037;-59
2022/03/03 02:31:08;;;;;;;24.98;13.88;;;;;;;-0.23;97.85;100393.16;4972228;28;20422;-59
2022/03/03 02:33:33;;;;;;;24.42;14.65;;;;;;;-0.23;97.23;100403.59;4972140;28;20049;-59
2022/03/03 02:36:19;;;;;;;25.27;13.68;;;;;;;-0.20;97.29;100399.28;4970772;28;20051;-59
2022/03/03 02:38:46;;;;;;;22.15;13.10;;;;;;;-0.20;96.74;100404.50;4971707;28;20482;-59
2022/03/03 02:41:11;;;;;;;28.25;13.88;;;;;;;-0.50;97.40;100349.16;4971928;28;20034;-59
2022/03/03 02:43:37;;;;;;;24.38;14.25;;;;;;;-0.17;97.16;100409.81;4971979;28;20146;-59
2022/03/03 02:46:02;;;;;;;26.77;13.02;;;;;;;-0.25;97.16;100400.94;4972207;28;20027;-59
2022/03/03 02:48:28;;;;;;;23.80;13.85;;;;;;;-0.24;97.06;100413.16;4971830;28;20019;-59
2022/03/03 02:50:57;;;;;;;24.17;13.45;;;;;;;-0.29;97.12;100412.22;4970793;28;20142;-59
2022/03/03 02:53:23;;;;;;;25.27;13.90;;;;;;;-0.31;96.86;100415.63;4971503;28;20042;-59
2022/03/03 02:55:48;;;;;;;28.83;13.52;;;;;;;-0.34;97.02;100415.59;4972182;28;20023;-59
2022/03/03 02:58:13;;;;;;;24.60;13.02;;;;;;;-0.35;97.07;100414.72;4971926;28;20023;-59
2022/03/03 03:00:42;;;;;;;23.25;12.55;;;;;;;-0.39;97.31;100412.91;4970640;28;20041;-59
2022/03/03 03:03:09;;;;;;;24.85;12.90;;;;;;;-0.36;97.14;100412.06;4971609;28;20073;-59
2022/03/03 03:05:35;;;;;;;25.23;13.30;;;;;;;-0.43;97.47;100405.84;4970422;28;20057;-59
2022/03/03 03:08:01;;;;;;;20.27;11.55;;;;;;;-0.41;97.76;100409.38;4971740;28;20035;-59
2022/03/03 03:10:27;;;;;;;24.02;11.70;;;;;;;-0.39;97.70;100409.41;4961502;28;20046;-59
2022/03/03 03:12:52;;;;;;;26.70;12.85;;;;;;;-0.36;97.57;100409.44;4959992;28;20034;-60
2022/03/03 03:15:18;;;;;;;21.05;13.07;;;;;;;-0.38;97.53;100400.72;4971875;28;20038;-59
2022/03/03 03:17:43;;;;;;;22.63;12.48;;;;;;;-0.36;97.50;100401.63;4971628;28;20069;-59
2022/03/03 03:20:09;;;;;;;21.55;12.18;;;;;;;-0.33;97.47;100388.63;4971617;28;20035;-59
2022/03/03 03:22:38;;;;;;;24.98;12.95;;;;;;;-0.20;97.75;100386.22;4971780;28;20042;-59
2022/03/03 03:25:05;;;;;;;23.40;12.45;;;;;;;-0.14;96.69;100381.09;4971809;28;20034;-59
2022/03/03 03:27:31;;;;;;;24.25;13.23;;;;;;;-0.16;96.71;100390.66;4971882;28;20389;-60
2022/03/03 03:29:56;;;;;;;21.30;12.15;;;;;;;-0.21;97.07;100387.09;4971477;28;20038;-59
2022/03/03 03:32:22;;;;;;;22.33;11.35;;;;;;;-0.20;97.20;100378.38;4971499;28;20094;-59
2022/03/03 03:34:47;;;;;;;23.77;12.48;;;;;;;-0.22;97.57;100380.09;4971893;28;20125;-60
2022/03/03 03:37:13;;;;;;;21.50;12.27;;;;;;;-0.20;96.94;100373.16;4970771;28;20030;-59
2022/03/03 03:39:38;;;;;;;28.65;12.70;;;;;;;-0.25;96.23;100379.19;4970030;28;20486;-60
2022/03/03 03:42:04;;;;;;;24.30;13.05;;;;;;;-0.30;96.45;100378.22;4971384;28;20033;-60
2022/03/03 03:44:29;;;;;;;29.10;13.38;;;;;;;-0.35;96.79;100375.53;4970993;28;20114;-60
2022/03/03 03:46:55;;;;;;;21.05;12.05;;;;;;;-0.34;96.59;100374.66;4971507;28;20030;-60
2022/03/03 03:49:20;;;;;;;20.45;11.70;;;;;;;-0.36;96.18;100385.94;4970774;28;20042;-60
2022/03/03 03:51:46;;;;;;;24.27;11.85;;;;;;;-0.38;96.91;100393.75;4971359;28;20401;-59
2022/03/03 03:54:11;;;;;;;21.92;12.70;;;;;;;-0.48;96.99;100386.59;4971394;28;20027;-60
2022/03/03 03:56:36;;;;;;;20.55;12.15;;;;;;;-0.58;96.68;100379.50;4970702;28;20033;-59
2022/03/03 03:59:02;;;;;;;20.25;11.20;;;;;;;-0.59;96.92;100382.94;4969563;28;20114;-59
2022/03/03 04:01:30;;;;;;;19.75;11.77;;;;;;;-0.67;97.49;100363.66;4970884;28;20102;-60
2022/03/03 04:03:56;;;;;;;16.23;10.15;;;;;;;-0.63;96.63;100375.91;4971096;28;20748;-60
2022/03/03 04:06:22;;;;;;;21.98;12.02;;;;;;;-0.68;96.71;100377.56;4970735;28;20045;-59
2022/03/03 04:08:47;;;;;;;25.65;12.25;;;;;;;-0.65;97.61;100377.63;4970809;28;20781;-59
2022/03/03 04:11:12;;;;;;;23.90;12.15;;;;;;;-0.65;97.06;100367.16;4970702;28;20042;-60
2022/03/03 04:13:38;;;;;;;25.90;12.75;;;;;;;-0.68;97.08;100371.47;4970874;28;20037;-60
2022/03/03 04:16:03;;;;;;;21.30;12.88;;;;;;;-0.67;96.79;100355.81;4969602;28;20406;-59
2022/03/03 04:18:29;;;;;;;20.30;11.98;;;;;;;-0.69;97.38;100349.69;4969674;28;20034;-60
2022/03/03 04:20:54;;;;;;;21.65;12.27;;;;;;;-0.66;97.27;100354.94;4970368;28;20031;-60
2022/03/03 04:23:20;;;;;;;25.20;13.25;;;;;;;-0.62;97.08;100362.00;4970666;28;20023;-60
2022/03/03 04:25:45;;;;;;;25.42;13.27;;;;;;;-0.69;97.12;100362.72;4970749;28;20054;-60
2022/03/03 04:28:11;;;;;;;19.10;11.60;;;;;;;-0.74;96.80;100367.00;4970861;28;20065;-59
2022/03/03 04:30:36;;;;;;;22.52;13.02;;;;;;;-0.72;96.90;100373.13;4970145;28;20027;-59
2022/03/03 04:33:02;;;;;;;20.77;14.10;;;;;;;-0.79;96.89;100373.88;4970695;28;20023;-60
2022/03/03 04:35:28;;;;;;;23.10;11.77;;;;;;;-0.78;97.27;100364.31;4970092;28;20082;-60
2022/03/03 04:37:54;;;;;;;23.98;12.50;;;;;;;-0.79;97.29;100363.41;4969880;28;20027;-60
2022/03/03 04:40:19;;;;;;;22.88;12.68;;;;;;;-0.82;97.47;100367.69;4970093;28;20548;-60
2022/03/03 04:42:45;;;;;;;25.48;12.00;;;;;;;-0.87;97.41;100359.78;4970392;28;20033;-59
2022/03/03 04:45:10;;;;;;;28.05;13.07;;;;;;;-0.88;97.36;100352.81;4969702;28;20493;-60
2022/03/03 04:47:36;;;;;;;20.17;11.63;;;;;;;-0.88;97.96;100357.16;4969682;28;20027;-59
2022/03/03 04:50:02;;;;;;;29.60;13.30;;;;;;;-0.89;97.72;100358.03;4968879;28;20387;-59
2022/03/03 04:52:27;;;;;;;37.08;13.32;;;;;;;-0.93;97.61;100354.47;4969866;28;20023;-60
2022/03/03 04:54:53;;;;;;;20.80;12.32;;;;;;;-0.85;98.26;100352.00;4970239;28;20037;-59
2022/03/03 04:57:18;;;;;;;23.27;12.98;;;;;;;-0.91;97.42;100357.09;4970186;28;20446;-59
2022/03/03 04:59:43;;;;;;;21.58;11.80;;;;;;;-1.01;97.20;100345.63;4968849;28;20032;-59
2022/03/03 05:02:09;;;;;;;28.33;13.10;;;;;;;-1.06;97.93;100349.00;4969438;28;20033;-59
2022/03/03 05:04:34;;;;;;;21.58;11.68;;;;;;;-1.01;98.70;100349.97;4969095;28;20721;-59
2022/03/03 05:07:00;;;;;;;21.67;12.35;;;;;;;-1.02;98.17;100345.59;4970046;28;20118;-59
2022/03/03 05:09:25;;;;;;;23.88;13.50;;;;;;;-1.04;98.28;100335.13;4969718;28;20390;-60
2022/03/03 05:11:51;;;;;;;22.48;12.60;;;;;;;-0.99;98.65;100350.88;4970119;28;20034;-60
2022/03/03 05:14:19;;;;;;;22.40;12.23;;;;;;;-1.00;98.22;100342.16;4968763;28;20035;-60
2022/03/03 05:16:44;;;;;;;23.25;11.95;;;;;;;-1.05;98.41;100342.91;4969635;28;20026;-59
2022/03/03 05:19:10;;;;;;;21.95;12.75;;;;;;;-1.13;98.29;100334.94;4970009;28;20943;-59
2022/03/03 05:21:35;;;;;;;26.30;13.35;;;;;;;-1.06;98.95;100346.38;4969696;28;20058;-59
2022/03/03 05:24:01;;;;;;;26.02;12.05;;;;;;;-1.09;98.39;100341.09;4969805;28;20393;-59
2022/03/03 05:26:27;;;;;;;28.88;13.15;;;;;;;-1.18;98.78;100331.38;4969974;28;20041;-59
2022/03/03 05:28:52;;;;;;;23.80;12.70;;;;;;;-1.18;98.32;100346.13;4969745;28;20027;-59
2022/03/03 05:31:17;;;;;;;23.13;12.98;;;;;;;-1.20;98.37;100335.69;4969604;28;20031;-59
2022/03/03 05:33:43;;;;;;;32.08;13.50;;;;;;;-1.22;98.42;100341.72;4969737;28;20031;-59
2022/03/03 05:36:10;;;;;;;25.15;13.77;;;;;;;-1.20;98.94;100332.22;4969059;28;20026;-59
2022/03/03 05:38:36;;;;;;;24.00;11.65;;;;;;;-1.20;98.83;100334.81;4969761;28;20045;-59
2022/03/03 05:41:04;;;;;;;22.23;14.23;;;;;;;-1.24;98.52;100336.47;4969048;28;20113;-59
2022/03/03 05:43:30;;;;;;;30.10;14.02;;;;;;;-1.22;98.82;100337.41;4968581;28;20883;-59
2022/03/03 05:45:56;;;;;;;27.55;15.27;;;;;;;-1.18;98.51;100346.13;4968290;28;20496;-59
2022/03/03 05:48:22;;;;;;;24.60;13.13;;;;;;;-1.19;98.47;100339.16;4969240;28;20027;-59
2022/03/03 05:50:49;;;;;;;25.23;13.10;;;;;;;-1.18;98.55;100335.69;4968002;28;20045;-59
2022/03/03 05:53:18;;;;;;;26.77;13.15;;;;;;;-1.23;98.09;100312.13;4969572;28;20027;-59
2022/03/03 05:55:47;;;;;;;26.33;12.95;;;;;;;-1.04;98.65;100339.47;4969502;28;20026;-59
2022/03/03 05:58:19;;;;;;;34.08;15.63;;;;;;;-1.02;98.40;100333.41;4969300;28;20486;-59
2022/03/03 06:00:47;;;;;;;26.23;15.20;;;;;;;-1.01;98.32;100335.19;4968943;28;20061;-59
2022/03/03 06:03:14;;;;;;;29.17;16.08;;;;;;;-1.01;98.42;100337.78;4969277;28;20033;-59
2022/03/03 06:05:44;;;;;;;28.73;17.52;;;;;;;-1.05;98.40;100341.19;4967817;28;20050;-59
2022/03/03 06:08:16;;;;;;;36.15;17.25;;;;;;;-1.12;98.45;100341.91;4969784;28;20086;-59
2022/03/03 06:10:46;;;;;;;28.42;17.10;;;;;;;-1.14;98.41;100327.97;4969265;28;20502;-59
2022/03/03 06:13:12;;;;;;;32.75;16.23;;;;;;;-1.42;98.64;100268.31;4969530;28;20061;-59
2022/03/03 06:15:37;;;;;;;29.50;15.65;;;;;;;-1.03;98.94;100322.94;4969447;28;20038;-59
2022/03/03 06:18:03;;;;;;;27.88;17.58;;;;;;;-0.93;98.51;100320.53;4969795;28;20074;-59
2022/03/03 06:20:31;;;;;;;35.03;18.65;;;;;;;-0.86;98.87;100325.03;4968718;28;20030;-59
2022/03/03 06:22:56;;;;;;;30.92;16.50;;;;;;;-0.78;99.23;100326.03;4969610;28;20540;-59
2022/03/03 06:25:25;;;;;;;31.17;17.02;;;;;;;-0.70;99.13;100316.59;4970814;28;20027;-59
2022/03/03 06:27:51;;;;;;;29.00;15.75;;;;;;;-0.64;98.93;100321.91;4973004;28;20398;-59
2022/03/03 06:30:17;;;;;;;32.70;16.33;;;;;;;-0.55;98.24;100334.25;4972742;28;20022;-59
2022/03/03 06:32:42;;;;;;;31.77;15.75;;;;;;;-0.45;98.34;100339.66;4972667;28;20536;-59
2022/03/03 06:35:08;;;;;;;24.70;15.38;;;;;;;-0.42;97.56;100326.63;4972534;28;20129;-59
2022/03/03 06:37:34;;;;;;;29.58;15.20;;;;;;;-0.43;97.35;100330.09;4972690;28;20045;-59
2022/03/03 06:39:59;;;;;;;29.58;17.25;;;;;;;-0.45;97.36;100331.81;4971831;28;20123;-59
2022/03/03 06:42:26;;;;;;;31.55;15.65;;;;;;;-0.36;97.21;100329.34;4971797;28;20049;-59
2022/03/03 06:44:53;;;;;;;26.65;15.95;;;;;;;-0.31;97.55;100330.28;4971388;28;20034;-59
2022/03/03 06:47:21;;;;;;;25.65;14.45;;;;;;;-0.26;97.09;100331.25;4972393;28;20039;-59
2022/03/03 06:49:47;;;;;;;28.05;15.25;;;;;;;-0.22;97.52;100337.41;4970592;28;20023;-59
2022/03/03 06:52:15;;;;;;;34.15;17.55;;;;;;;-0.16;97.15;100346.22;4971969;28;20026;-59
2022/03/03 06:54:44;;;;;;;32.88;17.15;;;;;;;-0.06;96.41;100340.28;4972565;28;20030;-59
2022/03/03 06:57:11;;;;;;;35.83;19.30;;;;;;;0.05;96.93;100342.16;4972664;28;20544;-59
2022/03/03 06:59:38;;;;;;;39.55;19.05;;;;;;;0.13;96.88;100332.69;4971923;28;20035;-59
2022/03/03 07:02:03;;;;;;;35.72;18.77;;;;;;;0.22;96.72;100330.19;4972029;28;20026;-59
2022/03/03 07:04:29;;;;;;;61.05;29.15;;;;;;;0.34;96.58;100331.25;4953538;28;20129;-59
2022/03/03 07:06:55;;;;;;;59.63;28.70;;;;;;;0.55;95.88;100325.38;4970752;28;20518;-59
2022/03/03 07:09:21;;;;;;;46.90;22.83;;;;;;;0.72;95.58;100332.59;4971536;28;20031;-59
2022/03/03 07:11:48;;;;;;;34.60;20.23;;;;;;;1.00;96.15;100320.69;4971712;28;20041;-59
2022/03/03 07:14:14;;;;;;;32.60;18.40;;;;;;;2.73;100.00;100320.13;4971835;28;20030;-59
2022/03/03 07:16:53;;;;;;;39.15;19.95;;;;;;;5.36;93.32;100321.44;4970570;28;20718;-59
2022/03/03 07:19:37;;;;;;;34.25;18.85;;;;;;;7.88;72.40;100306.06;4969653;28;20022;-59
2022/03/03 07:22:07;;;;;;;31.70;16.60;;;;;;;9.48;58.12;100316.06;4971551;28;20574;-59
2022/03/03 07:24:39;;;;;;;25.30;14.70;;;;;;;10.60;52.25;100312.28;4971822;28;20041;-59
2022/03/03 07:27:04;;;;;;;21.05;12.75;;;;;;;11.64;48.18;100306.47;4971281;28;20539;-60
2022/03/03 07:29:33;;;;;;;26.85;14.15;;;;;;;12.27;46.03;100303.44;4971478;28;20099;-59
2022/03/03 07:32:06;;;;;;;26.50;15.02;;;;;;;12.60;44.52;100296.88;4971270;28;20047;-59
2022/03/03 07:34:34;;;;;;;23.77;14.48;;;;;;;12.41;44.06;100242.47;4971868;28;20034;-59
2022/03/03 07:37:05;;;;;;;22.95;13.40;;;;;;;13.01;43.10;100290.91;4968257;28;20042;-59
2022/03/03 07:39:40;;;;;;;27.58;13.70;;;;;;;13.60;42.29;100285.03;4968741;28;20694;-59
2022/03/03 07:42:11;;;;;;;23.38;14.43;;;;;;;13.96;41.34;100291.53;4968511;28;20049;-60
2022/03/03 07:44:37;;;;;;;28.58;16.85;;;;;;;14.52;40.70;100287.31;4968621;28;20035;-60
2022/03/03 07:47:02;;;;;;;25.45;15.25;;;;;;;14.70;39.31;100291.84;4965835;28;20034;-60
2022/03/03 07:49:30;;;;;;;26.17;14.63;;;;;;;15.36;38.18;100294.09;4970118;28;20026;-60
2022/03/03 07:51:56;;;;;;;26.55;15.02;;;;;;;15.64;38.65;100282.94;4969311;28;20058;-60
2022/03/03 07:54:21;;;;;;;22.77;14.13;;;;;;;15.49;37.23;100273.84;4970574;28;20069;-60
2022/03/03 07:56:50;;;;;;;26.73;14.45;;;;;;;14.82;39.06;100269.00;4970827;28;20949;-60
2022/03/03 07:59:18;;;;;;;22.52;16.00;;;;;;;15.23;38.30;100263.47;4969249;28;20041;-60
2022/03/03 08:01:45;;;;;;;29.25;15.25;;;;;;;15.14;38.44;100266.56;4969445;28;20058;-60
2022/03/03 08:04:15;;;;;;;24.88;14.43;;;;;;;14.97;38.73;100262.94;4970155;28;20497;-60
2022/03/03 08:06:40;;;;;;;22.52;13.43;;;;;;;14.88;38.62;100263.38;4970890;28;20770;-60
2022/03/03 08:09:07;;;;;;;24.50;13.05;;;;;;;15.15;38.20;100256.72;4969830;28;20026;-60
2022/03/03 08:11:39;;;;;;;24.38;12.55;;;;;;;15.67;37.74;100250.59;4969473;28;20089;-60
2022/03/03 08:14:05;;;;;;;29.88;13.63;;;;;;;15.72;38.46;100254.81;4970180;28;20402;-60
2022/03/03 08:16:35;;;;;;;22.63;13.07;;;;;;;15.83;36.25;100265.88;4970445;28;20110;-60
2022/03/03 08:19:02;;;;;;;17.90;12.50;;;;;;;16.14;36.63;100262.53;4968691;28;20429;-60
2022/03/03 08:21:30;;;;;;;22.27;13.75;;;;;;;16.17;36.61;100275.78;4970664;28;20030;-60
2022/03/03 08:24:02;;;;;;;23.02;13.38;;;;;;;16.64;36.50;100270.63;4971130;28;20039;-60
2022/03/03 08:26:29;;;;;;;22.33;12.43;;;;;;;16.94;34.81;100277.03;4970713;28;20046;-60
2022/03/03 08:28:54;;;;;;;25.23;12.15;;;;;;;17.24;34.92;100267.31;4971020;28;20094;-60
2022/03/03 08:31:28;;;;;;;26.40;12.38;;;;;;;17.11;34.65;100263.56;4971317;28;20030;-60
2022/03/03 08:34:02;;;;;;;20.10;12.15;;;;;;;17.23;34.94;100262.00;4970341;28;20026;-60
2022/03/03 08:36:44;;;;;;;19.23;12.23;;;;;;;17.20;35.50;100265.72;4968956;28;20038;-60
2022/03/03 08:39:11;;;;;;;23.88;12.27;;;;;;;16.83;35.58;100266.03;4968931;28;20026;-60
2022/03/03 08:41:39;;;;;;;20.60;12.40;;;;;;;16.71;35.46;100264.84;4959064;28;20038;-60
2022/03/03 08:44:07;;;;;;;22.08;12.77;;;;;;;16.17;36.95;100264.16;4969443;28;20042;-60
2022/03/03 08:46:34;;;;;;;22.17;14.15;;;;;;;16.32;36.18;100266.94;4969489;28;20033;-60
2022/03/03 08:49:02;;;;;;;25.42;12.52;;;;;;;16.22;35.95;100263.00;4968103;28;20382;-60
2022/03/03 08:51:29;;;;;;;20.27;13.05;;;;;;;15.55;38.80;100262.81;4969789;28;20041;-60
2022/03/03 08:53:54;;;;;;;24.35;14.65;;;;;;;15.80;38.38;100257.97;4969923;28;20113;-60
2022/03/03 08:56:22;;;;;;;23.17;14.70;;;;;;;15.96;38.39;100249.16;4969580;28;20479;-60
2022/03/03 08:58:48;;;;;;;25.23;15.43;;;;;;;15.70;39.16;100256.69;4970443;28;20023;-60
2022/03/03 09:01:13;;;;;;;27.08;15.82;;;;;;;15.09;39.07;100263.25;4970027;28;20030;-60
2022/03/03 09:03:40;;;;;;;25.08;14.60;;;;;;;14.98;40.56;100265.56;4970815;28;20442;-60
2022/03/03 09:06:06;;;;;;;24.55;14.93;;;;;;;14.80;39.42;100263.72;4969855;28;20117;-60
2022/03/03 09:08:31;;;;;;;21.40;14.02;;;;;;;14.37;40.05;100263.91;4970111;28;20383;-60
2022/03/03 09:10:57;;;;;;;29.70;14.73;;;;;;;14.09;41.12;100260.66;4970087;28;20034;-60
2022/03/03 09:13:22;;;;;;;24.35;15.02;;;;;;;14.37;40.56;100263.91;4969056;28;20030;-60
2022/03/03 09:15:48;;;;;;;29.52;16.50;;;;;;;14.08;42.03;100274.97;4970296;28;20085;-60
2022/03/03 09:18:13;;;;;;;23.23;15.00;;;;;;;14.12;42.46;100271.22;4969431;28;20054;-60
2022/03/03 09:20:39;;;;;;;26.80;15.07;;;;;;;14.53;41.79;100267.63;4969859;28;20490;-60
2022/03/03 09:23:05;;;;;;;26.30;15.05;;;;;;;14.49;42.02;100266.06;4970029;28;20058;-60
2022/03/03 09:25:31;;;;;;;24.38;15.20;;;;;;;14.60;41.22;100274.47;4969246;28;20034;-60
2022/03/03 09:27:57;;;;;;;23.50;14.50;;;;;;;14.85;40.48;100269.75;4967695;28;20031;-60
2022/03/03 09:30:22;;;;;;;27.25;16.35;;;;;;;14.84;42.17;100273.38;4970509;28;20085;-60
2022/03/03 09:32:48;;;;;;;23.25;14.38;;;;;;;14.88;40.73;100260.69;4969938;28;20057;-60
2022/03/03 09:35:14;;;;;;;28.30;15.40;;;;;;;14.42;40.51;100264.56;4969836;28;20031;-60
2022/03/03 09:37:40;;;;;;;23.77;15.57;;;;;;;14.45;42.84;100259.09;4969731;28;20118;-60
2022/03/03 09:40:08;;;;;;;25.90;14.45;;;;;;;14.86;41.42;100265.25;4970114;28;20031;-60
2022/03/03 09:42:36;;;;;;;19.65;14.07;;;;;;;14.80;40.53;100258.38;4970062;28;20035;-60
2022/03/03 09:45:07;;;;;;;23.13;13.20;;;;;;;14.32;41.23;100265.91;4970715;28;20035;-60
2022/03/03 09:47:38;;;;;;;26.25;13.60;;;;;;;14.16;41.84;100270.16;4969312;28;20486;-60
2022/03/03 09:50:07;;;;;;;22.40;12.93;;;;;;;14.24;41.71;100273.38;4951112;29;20093;-60
2022/03/03 09:52:33;;;;;;;21.42;13.50;;;;;;;14.42;41.66;100269.94;4950997;29;20565;-60
2022/03/03 09:54:59;;;;;;;23.88;14.35;;;;;;;14.52;40.21;100271.25;4953938;28;20046;-60
2022/03/03 09:57:24;;;;;;;23.15;13.52;;;;;;;14.87;40.09;100265.19;4969748;28;20071;-60
2022/03/03 09:59:52;;;;;;;24.20;14.48;;;;;;;14.92;37.53;100257.81;4971298;28;20057;-60
2022/03/03 10:02:18;;;;;;;24.10;14.93;;;;;;;14.72;38.71;100268.56;4973088;28;20027;-61
2022/03/03 10:04:44;;;;;;;26.48;14.82;;;;;;;14.77;40.28;100266.56;4974308;28;20058;-60
2022/03/03 10:07:10;;;;;;;19.70;13.27;;;;;;;15.18;38.09;100261.94;4975511;28;20406;-60
2022/03/03 10:09:59;;;;;;;22.65;13.73;;;;;;;15.46;39.99;100252.53;4973260;28;20082;-60
2022/03/03 10:12:26;;;;;;;21.35;13.27;;;;;;;15.73;40.27;100256.53;4972364;28;20035;-61
2022/03/03 10:14:57;;;;;;;23.05;13.68;;;;;;;16.04;39.05;100257.69;4973973;28;20031;-60
2022/03/03 10:17:37;;;;;;;22.85;12.75;;;;;;;16.07;38.11;100260.22;4974103;28;20489;-60
2022/03/03 10:20:04;;;;;;;23.85;13.85;;;;;;;16.17;40.02;100261.47;4973630;28;20030;-60
2022/03/03 10:23:08;;;;;;;26.20;15.30;;;;;;;16.07;38.96;100270.94;4973853;28;20470;-60
2022/03/03 10:25:37;;;;;;;22.65;14.18;;;;;;;15.86;38.46;100274.72;4973670;28;20031;-61
2022/03/03 10:28:11;;;;;;;23.77;13.77;;;;;;;16.03;38.99;100274.75;4973444;28;20382;-61
2022/03/03 10:30:57;;;;;;;24.98;12.98;;;;;;;16.40;38.50;100279.94;4973457;28;20043;-60
2022/03/03 10:33:29;;;;;;;23.67;14.32;;;;;;;16.80;38.34;100274.25;4973866;28;20027;-60
2022/03/03 10:36:15;;;;;;;23.35;13.52;;;;;;;16.81;36.55;100268.78;4973893;28;20439;-60
2022/03/03 10:38:52;;;;;;;25.27;13.50;;;;;;;16.73;36.84;100257.59;4971665;28;20031;-60
2022/03/03 10:41:36;;;;;;;23.73;13.35;;;;;;;16.43;38.03;100255.63;4973643;28;20038;-60
2022/03/03 10:44:08;;;;;;;24.33;13.73;;;;;;;16.56;37.21;100254.06;4973660;28;20031;-60
2022/03/03 10:46:36;;;;;;;21.52;12.77;;;;;;;17.03;36.66;100252.38;4973264;28;20037;-61
2022/03/03 10:49:23;;;;;;;25.33;12.98;;;;;;;17.27;36.53;100242.06;4971555;28;20372;-61
2022/03/03 10:51:50;;;;;;;24.50;13.82;;;;;;;17.58;36.26;100247.47;4972799;28;20430;-61
2022/03/03 10:54:15;;;;;;;22.92;13.82;;;;;;;17.59;36.42;100247.41;4973362;28;20030;-61
2022/03/03 10:56:47;;;;;;;24.27;14.02;;;;;;;17.71;37.27;100249.34;4972475;28;20073;-61
2022/03/03 10:59:24;;;;;;;26.45;13.10;;;;;;;17.92;36.44;100237.34;4972422;28;20023;-60
2022/03/03 11:01:50;;;;;;;21.88;13.82;;;;;;;17.59;36.11;100250.09;4973612;28;20030;-60
2022/03/03 11:04:20;;;;;;;26.85;14.23;;;;;;;17.68;35.89;100243.28;4972924;28;20031;-60
2022/03/03 11:06:49;;;;;;;25.85;15.05;;;;;;;17.83;36.29;100239.69;4972115;28;20134;-60
2022/03/03 11:09:17;;;;;;;25.13;15.18;;;;;;;17.96;35.97;100241.59;4972488;28;20490;-61
2022/03/03 11:11:42;;;;;;;21.95;12.95;;;;;;;18.18;35.28;100239.38;4972590;28;20494;-61